sensor_id;sensor_type;location;lat;lon;timestamp;temperature;humidity
74364;DHT22;62797;49.740;10.154;2023-05-23T00:01:44;18.60;43.70
74364;DHT22;62797;49.740;10.154;2023-05-23T00:04:11;18.50;44.00
74364;DHT22;62797;49.740;10.154;2023-05-23T00:06:43;18.50;44.60
74364;DHT22;62797;49.740;10.154;2023-05-23T00:09:15;18.30;46.00
74364;DHT22;62797;49.740;10.154;2023-05-23T00:11:41;18.30;46.20
74364;DHT22;62797;49.740;10.154;2023-05-23T00:14:13;18.30;45.90
74364;DHT22;62797;49.740;10.154;2023-05-23T00:16:44;18.30;45.80
74364;DHT22;62797;49.740;10.154;2023-05-23T00:19:10;18.20;47.00
74364;DHT22;62797;49.740;10.154;2023-05-23T00:21:36;18.20;47.60
74364;DHT22;62797;49.740;10.154;2023-05-23T00:24:02;18.10;47.90
74364;DHT22;62797;49.740;10.154;2023-05-23T00:26:29;18.20;48.00
74364;DHT22;62797;49.740;10.154;2023-05-23T00:28:55;18.20;47.80
74364;DHT22;62797;49.740;10.154;2023-05-23T00:31:22;18.20;48.30
74364;DHT22;62797;49.740;10.154;2023-05-23T00:33:47;18.30;48.20
74364;DHT22;62797;49.740;10.154;2023-05-23T00:36:13;18.20;47.90
74364;DHT22;62797;49.740;10.154;2023-05-23T00:38:39;18.20;47.80
74364;DHT22;62797;49.740;10.154;2023-05-23T00:41:05;18.20;48.40
74364;DHT22;62797;49.740;10.154;2023-05-23T00:43:31;18.20;47.50
74364;DHT22;62797;49.740;10.154;2023-05-23T00:45:57;18.20;47.60
74364;DHT22;62797;49.740;10.154;2023-05-23T00:48:24;18.20;47.40
74364;DHT22;62797;49.740;10.154;2023-05-23T00:50:50;18.20;47.50
74364;DHT22;62797;49.740;10.154;2023-05-23T00:53:16;18.30;47.80
74364;DHT22;62797;49.740;10.154;2023-05-23T00:55:43;18.20;47.70
74364;DHT22;62797;49.740;10.154;2023-05-23T00:58:10;18.10;48.30
74364;DHT22;62797;49.740;10.154;2023-05-23T01:00:37;18.00;48.80
74364;DHT22;62797;49.740;10.154;2023-05-23T01:03:03;18.00;49.80
74364;DHT22;62797;49.740;10.154;2023-05-23T01:05:29;18.00;49.10
74364;DHT22;62797;49.740;10.154;2023-05-23T01:07:55;18.00;49.30
74364;DHT22;62797;49.740;10.154;2023-05-23T01:10:28;18.00;49.20
74364;DHT22;62797;49.740;10.154;2023-05-23T01:15:38;18.00;49.50
74364;DHT22;62797;49.740;10.154;2023-05-23T01:18:12;18.10;49.40
74364;DHT22;62797;49.740;10.154;2023-05-23T01:20:46;18.10;49.40
74364;DHT22;62797;49.740;10.154;2023-05-23T01:23:34;18.10;49.60
74364;DHT22;62797;49.740;10.154;2023-05-23T01:29:17;18.10;49.30
74364;DHT22;62797;49.740;10.154;2023-05-23T01:31:45;18.10;50.60
74364;DHT22;62797;49.740;10.154;2023-05-23T01:34:13;18.10;50.10
74364;DHT22;62797;49.740;10.154;2023-05-23T01:36:42;18.10;50.20
74364;DHT22;62797;49.740;10.154;2023-05-23T01:39:08;18.00;50.80
74364;DHT22;62797;49.740;10.154;2023-05-23T01:41:35;18.00;50.80
74364;DHT22;62797;49.740;10.154;2023-05-23T01:44:01;17.90;51.50
74364;DHT22;62797;49.740;10.154;2023-05-23T01:46:31;17.90;51.40
74364;DHT22;62797;49.740;10.154;2023-05-23T01:48:58;17.90;51.30
74364;DHT22;62797;49.740;10.154;2023-05-23T01:51:24;18.00;51.00
74364;DHT22;62797;49.740;10.154;2023-05-23T01:53:52;17.90;51.90
74364;DHT22;62797;49.740;10.154;2023-05-23T01:56:19;17.90;51.60
74364;DHT22;62797;49.740;10.154;2023-05-23T01:58:46;17.90;51.70
74364;DHT22;62797;49.740;10.154;2023-05-23T02:01:12;18.00;51.60
74364;DHT22;62797;49.740;10.154;2023-05-23T02:03:38;18.10;51.30
74364;DHT22;62797;49.740;10.154;2023-05-23T02:06:04;18.10;52.10
74364;DHT22;62797;49.740;10.154;2023-05-23T02:08:30;18.10;52.20
74364;DHT22;62797;49.740;10.154;2023-05-23T02:10:55;18.00;51.50
74364;DHT22;62797;49.740;10.154;2023-05-23T02:13:22;18.00;51.40
74364;DHT22;62797;49.740;10.154;2023-05-23T02:15:47;18.00;51.70
74364;DHT22;62797;49.740;10.154;2023-05-23T02:18:15;18.00;51.60
74364;DHT22;62797;49.740;10.154;2023-05-23T02:20:41;18.00;51.70
74364;DHT22;62797;49.740;10.154;2023-05-23T02:23:08;18.00;52.00
74364;DHT22;62797;49.740;10.154;2023-05-23T02:25:36;18.00;52.10
74364;DHT22;62797;49.740;10.154;2023-05-23T02:28:05;18.00;51.80
74364;DHT22;62797;49.740;10.154;2023-05-23T02:30:31;17.90;52.50
74364;DHT22;62797;49.740;10.154;2023-05-23T02:32:56;17.90;52.60
74364;DHT22;62797;49.740;10.154;2023-05-23T02:35:23;17.90;53.10
74364;DHT22;62797;49.740;10.154;2023-05-23T02:37:49;17.90;53.10
74364;DHT22;62797;49.740;10.154;2023-05-23T02:40:15;17.90;54.10
74364;DHT22;62797;49.740;10.154;2023-05-23T02:42:41;17.90;53.20
74364;DHT22;62797;49.740;10.154;2023-05-23T02:45:07;17.90;53.10
74364;DHT22;62797;49.740;10.154;2023-05-23T02:47:33;17.90;53.50
74364;DHT22;62797;49.740;10.154;2023-05-23T02:49:59;17.80;54.10
74364;DHT22;62797;49.740;10.154;2023-05-23T02:52:25;17.80;53.90
74364;DHT22;62797;49.740;10.154;2023-05-23T02:54:52;17.90;53.90
74364;DHT22;62797;49.740;10.154;2023-05-23T02:57:18;17.70;54.70
74364;DHT22;62797;49.740;10.154;2023-05-23T02:59:44;17.70;54.50
74364;DHT22;62797;49.740;10.154;2023-05-23T03:02:10;17.70;54.10
74364;DHT22;62797;49.740;10.154;2023-05-23T03:04:35;17.70;54.10
74364;DHT22;62797;49.740;10.154;2023-05-23T03:07:02;17.70;53.70
74364;DHT22;62797;49.740;10.154;2023-05-23T03:09:28;17.60;54.10
74364;DHT22;62797;49.740;10.154;2023-05-23T03:11:54;17.50;54.90
74364;DHT22;62797;49.740;10.154;2023-05-23T03:14:19;17.60;55.20
74364;DHT22;62797;49.740;10.154;2023-05-23T03:16:45;17.60;54.40
74364;DHT22;62797;49.740;10.154;2023-05-23T03:19:11;17.50;54.70
74364;DHT22;62797;49.740;10.154;2023-05-23T03:21:37;17.60;53.70
74364;DHT22;62797;49.740;10.154;2023-05-23T03:24:03;17.50;54.20
74364;DHT22;62797;49.740;10.154;2023-05-23T03:26:29;17.60;53.90
74364;DHT22;62797;49.740;10.154;2023-05-23T03:28:55;17.60;53.60
74364;DHT22;62797;49.740;10.154;2023-05-23T03:31:21;17.60;53.20
74364;DHT22;62797;49.740;10.154;2023-05-23T03:33:47;17.60;53.60
74364;DHT22;62797;49.740;10.154;2023-05-23T03:36:12;17.60;53.70
74364;DHT22;62797;49.740;10.154;2023-05-23T03:38:39;17.60;53.60
74364;DHT22;62797;49.740;10.154;2023-05-23T03:41:05;17.70;53.30
74364;DHT22;62797;49.740;10.154;2023-05-23T03:43:31;17.70;53.20
74364;DHT22;62797;49.740;10.154;2023-05-23T03:45:57;17.70;52.90
74364;DHT22;62797;49.740;10.154;2023-05-23T03:48:23;17.80;51.90
74364;DHT22;62797;49.740;10.154;2023-05-23T03:50:50;17.70;52.60
74364;DHT22;62797;49.740;10.154;2023-05-23T03:53:17;17.80;52.10
74364;DHT22;62797;49.740;10.154;2023-05-23T03:55:43;17.70;52.70
74364;DHT22;62797;49.740;10.154;2023-05-23T03:58:10;17.80;52.30
74364;DHT22;62797;49.740;10.154;2023-05-23T04:00:36;17.80;52.00
74364;DHT22;62797;49.740;10.154;2023-05-23T04:03:05;17.80;52.20
74364;DHT22;62797;49.740;10.154;2023-05-23T04:05:31;17.70;52.50
74364;DHT22;62797;49.740;10.154;2023-05-23T04:07:57;17.70;52.80
74364;DHT22;62797;49.740;10.154;2023-05-23T04:10:26;17.70;52.90
74364;DHT22;62797;49.740;10.154;2023-05-23T04:12:51;17.80;52.80
74364;DHT22;62797;49.740;10.154;2023-05-23T04:15:18;17.70;53.10
74364;DHT22;62797;49.740;10.154;2023-05-23T04:17:55;17.70;53.20
74364;DHT22;62797;49.740;10.154;2023-05-23T04:20:22;17.60;53.50
74364;DHT22;62797;49.740;10.154;2023-05-23T04:22:48;17.60;53.70
74364;DHT22;62797;49.740;10.154;2023-05-23T04:25:14;17.60;53.80
74364;DHT22;62797;49.740;10.154;2023-05-23T04:27:46;17.60;53.90
74364;DHT22;62797;49.740;10.154;2023-05-23T04:30:13;17.70;53.70
74364;DHT22;62797;49.740;10.154;2023-05-23T04:32:42;17.70;53.90
74364;DHT22;62797;49.740;10.154;2023-05-23T04:35:08;17.70;53.90
74364;DHT22;62797;49.740;10.154;2023-05-23T04:37:37;17.80;53.90
74364;DHT22;62797;49.740;10.154;2023-05-23T04:40:05;17.80;53.40
74364;DHT22;62797;49.740;10.154;2023-05-23T04:42:43;17.90;53.30
74364;DHT22;62797;49.740;10.154;2023-05-23T04:45:23;17.90;53.70
74364;DHT22;62797;49.740;10.154;2023-05-23T04:48:02;17.90;53.70
74364;DHT22;62797;49.740;10.154;2023-05-23T04:50:40;17.80;53.50
74364;DHT22;62797;49.740;10.154;2023-05-23T04:53:07;17.80;54.00
74364;DHT22;62797;49.740;10.154;2023-05-23T04:55:33;17.80;54.30
74364;DHT22;62797;49.740;10.154;2023-05-23T04:57:59;17.70;54.10
74364;DHT22;62797;49.740;10.154;2023-05-23T05:00:25;17.80;54.40
74364;DHT22;62797;49.740;10.154;2023-05-23T05:02:52;17.80;54.20
74364;DHT22;62797;49.740;10.154;2023-05-23T05:05:17;17.70;54.60
74364;DHT22;62797;49.740;10.154;2023-05-23T05:07:43;17.70;55.10
74364;DHT22;62797;49.740;10.154;2023-05-23T05:10:09;17.80;54.00
74364;DHT22;62797;49.740;10.154;2023-05-23T05:12:46;17.80;54.30
74364;DHT22;62797;49.740;10.154;2023-05-23T05:15:15;17.70;54.40
74364;DHT22;62797;49.740;10.154;2023-05-23T05:17:44;17.70;54.90
74364;DHT22;62797;49.740;10.154;2023-05-23T05:20:12;17.70;55.30
74364;DHT22;62797;49.740;10.154;2023-05-23T05:22:39;17.70;55.00
74364;DHT22;62797;49.740;10.154;2023-05-23T05:25:06;17.80;54.20
74364;DHT22;62797;49.740;10.154;2023-05-23T05:27:33;17.90;54.30
74364;DHT22;62797;49.740;10.154;2023-05-23T05:29:59;17.90;54.00
74364;DHT22;62797;49.740;10.154;2023-05-23T05:32:31;18.00;52.80
74364;DHT22;62797;49.740;10.154;2023-05-23T05:34:59;18.10;52.70
74364;DHT22;62797;49.740;10.154;2023-05-23T05:37:27;18.30;51.30
74364;DHT22;62797;49.740;10.154;2023-05-23T05:39:54;18.40;51.00
74364;DHT22;62797;49.740;10.154;2023-05-23T05:42:20;18.00;52.10
74364;DHT22;62797;49.740;10.154;2023-05-23T05:44:47;18.10;52.30
74364;DHT22;62797;49.740;10.154;2023-05-23T05:47:14;18.10;52.80
74364;DHT22;62797;49.740;10.154;2023-05-23T05:49:40;18.00;52.60
74364;DHT22;62797;49.740;10.154;2023-05-23T05:52:07;18.00;53.30
74364;DHT22;62797;49.740;10.154;2023-05-23T05:54:33;18.10;53.60
74364;DHT22;62797;49.740;10.154;2023-05-23T05:56:59;18.10;53.40
74364;DHT22;62797;49.740;10.154;2023-05-23T05:59:25;18.20;53.20
74364;DHT22;62797;49.740;10.154;2023-05-23T06:01:53;18.30;51.70
74364;DHT22;62797;49.740;10.154;2023-05-23T06:04:19;18.30;52.20
74364;DHT22;62797;49.740;10.154;2023-05-23T06:06:48;18.30;52.50
74364;DHT22;62797;49.740;10.154;2023-05-23T06:09:13;18.50;52.10
74364;DHT22;62797;49.740;10.154;2023-05-23T06:11:39;18.60;51.40
74364;DHT22;62797;49.740;10.154;2023-05-23T06:14:07;18.50;51.40
74364;DHT22;62797;49.740;10.154;2023-05-23T06:16:35;18.50;51.00
74364;DHT22;62797;49.740;10.154;2023-05-23T06:19:01;18.50;50.20
74364;DHT22;62797;49.740;10.154;2023-05-23T06:21:28;18.50;49.90
74364;DHT22;62797;49.740;10.154;2023-05-23T06:23:54;18.50;50.00
74364;DHT22;62797;49.740;10.154;2023-05-23T06:26:21;18.60;50.60
74364;DHT22;62797;49.740;10.154;2023-05-23T06:28:47;18.60;49.80
74364;DHT22;62797;49.740;10.154;2023-05-23T06:31:13;18.80;47.80
74364;DHT22;62797;49.740;10.154;2023-05-23T06:33:40;18.80;47.50
74364;DHT22;62797;49.740;10.154;2023-05-23T06:36:09;18.80;47.60
74364;DHT22;62797;49.740;10.154;2023-05-23T06:38:38;18.80;47.30
74364;DHT22;62797;49.740;10.154;2023-05-23T06:41:05;18.90;45.20
74364;DHT22;62797;49.740;10.154;2023-05-23T06:43:33;18.80;45.70
74364;DHT22;62797;49.740;10.154;2023-05-23T06:46:22;18.80;46.30
74364;DHT22;62797;49.740;10.154;2023-05-23T06:48:49;18.90;45.70
74364;DHT22;62797;49.740;10.154;2023-05-23T06:51:15;18.80;44.70
74364;DHT22;62797;49.740;10.154;2023-05-23T06:53:41;18.80;46.20
74364;DHT22;62797;49.740;10.154;2023-05-23T06:56:07;18.90;45.60
74364;DHT22;62797;49.740;10.154;2023-05-23T06:58:41;18.90;44.20
74364;DHT22;62797;49.740;10.154;2023-05-23T07:01:07;18.80;44.10
74364;DHT22;62797;49.740;10.154;2023-05-23T07:03:39;18.70;44.20
74364;DHT22;62797;49.740;10.154;2023-05-23T07:06:08;18.70;43.40
74364;DHT22;62797;49.740;10.154;2023-05-23T07:08:34;18.70;44.20
74364;DHT22;62797;49.740;10.154;2023-05-23T07:11:00;18.80;43.10
74364;DHT22;62797;49.740;10.154;2023-05-23T07:13:37;18.80;43.30
74364;DHT22;62797;49.740;10.154;2023-05-23T07:16:03;18.70;41.70
74364;DHT22;62797;49.740;10.154;2023-05-23T07:18:31;18.70;41.30
74364;DHT22;62797;49.740;10.154;2023-05-23T07:20:57;18.70;40.60
74364;DHT22;62797;49.740;10.154;2023-05-23T07:23:23;18.70;40.00
74364;DHT22;62797;49.740;10.154;2023-05-23T07:25:50;18.60;39.70
74364;DHT22;62797;49.740;10.154;2023-05-23T07:28:25;18.40;40.40
74364;DHT22;62797;49.740;10.154;2023-05-23T07:30:53;18.40;40.30
74364;DHT22;62797;49.740;10.154;2023-05-23T07:33:22;18.50;40.20
74364;DHT22;62797;49.740;10.154;2023-05-23T07:35:48;18.50;38.80
74364;DHT22;62797;49.740;10.154;2023-05-23T07:38:14;18.60;38.80
74364;DHT22;62797;49.740;10.154;2023-05-23T07:40:40;18.70;39.20
74364;DHT22;62797;49.740;10.154;2023-05-23T07:43:05;18.70;38.00
74364;DHT22;62797;49.740;10.154;2023-05-23T07:45:31;18.70;37.60
74364;DHT22;62797;49.740;10.154;2023-05-23T07:47:59;18.50;37.90
74364;DHT22;62797;49.740;10.154;2023-05-23T07:50:25;18.30;38.40
74364;DHT22;62797;49.740;10.154;2023-05-23T07:52:53;18.30;38.10
74364;DHT22;62797;49.740;10.154;2023-05-23T07:55:25;18.30;38.10
74364;DHT22;62797;49.740;10.154;2023-05-23T07:57:53;18.30;38.60
74364;DHT22;62797;49.740;10.154;2023-05-23T08:00:21;18.30;37.60
74364;DHT22;62797;49.740;10.154;2023-05-23T08:02:52;18.30;37.70
74364;DHT22;62797;49.740;10.154;2023-05-23T08:05:24;18.30;37.70
74364;DHT22;62797;49.740;10.154;2023-05-23T08:07:53;18.30;36.10
74364;DHT22;62797;49.740;10.154;2023-05-23T08:10:22;18.30;36.80
74364;DHT22;62797;49.740;10.154;2023-05-23T08:12:48;18.40;36.60
74364;DHT22;62797;49.740;10.154;2023-05-23T08:15:17;18.20;34.50
74364;DHT22;62797;49.740;10.154;2023-05-23T08:17:48;18.30;35.00
74364;DHT22;62797;49.740;10.154;2023-05-23T08:20:15;18.30;33.80
74364;DHT22;62797;49.740;10.154;2023-05-23T08:22:41;18.30;34.20
74364;DHT22;62797;49.740;10.154;2023-05-23T08:25:08;18.60;34.40
74364;DHT22;62797;49.740;10.154;2023-05-23T08:27:37;18.80;33.90
74364;DHT22;62797;49.740;10.154;2023-05-23T08:30:11;18.80;31.60
74364;DHT22;62797;49.740;10.154;2023-05-23T08:32:38;18.90;31.60
74364;DHT22;62797;49.740;10.154;2023-05-23T08:35:04;18.50;31.70
74364;DHT22;62797;49.740;10.154;2023-05-23T08:37:31;18.50;32.00
74364;DHT22;62797;49.740;10.154;2023-05-23T08:39:57;18.70;33.40
74364;DHT22;62797;49.740;10.154;2023-05-23T08:42:42;18.60;33.30
74364;DHT22;62797;49.740;10.154;2023-05-23T08:45:09;18.80;33.80
74364;DHT22;62797;49.740;10.154;2023-05-23T08:47:36;18.70;33.10
74364;DHT22;62797;49.740;10.154;2023-05-23T08:50:05;18.60;33.60
74364;DHT22;62797;49.740;10.154;2023-05-23T08:52:34;18.30;33.90
74364;DHT22;62797;49.740;10.154;2023-05-23T08:55:03;18.50;33.50
74364;DHT22;62797;49.740;10.154;2023-05-23T08:57:32;18.50;34.00
74364;DHT22;62797;49.740;10.154;2023-05-23T09:00:12;18.40;34.70
74364;DHT22;62797;49.740;10.154;2023-05-23T09:02:43;18.50;34.50
74364;DHT22;62797;49.740;10.154;2023-05-23T09:05:20;18.50;34.30
74364;DHT22;62797;49.740;10.154;2023-05-23T09:07:47;18.60;34.40
74364;DHT22;62797;49.740;10.154;2023-05-23T09:10:14;18.70;33.50
74364;DHT22;62797;49.740;10.154;2023-05-23T09:12:42;18.70;32.90
74364;DHT22;62797;49.740;10.154;2023-05-23T09:15:09;18.70;33.50
74364;DHT22;62797;49.740;10.154;2023-05-23T09:17:36;18.90;32.40
74364;DHT22;62797;49.740;10.154;2023-05-23T09:20:13;19.10;33.00
74364;DHT22;62797;49.740;10.154;2023-05-23T09:22:46;19.30;30.60
74364;DHT22;62797;49.740;10.154;2023-05-23T09:25:16;19.30;29.30
74364;DHT22;62797;49.740;10.154;2023-05-23T09:27:44;19.50;29.90
74364;DHT22;62797;49.740;10.154;2023-05-23T09:30:10;19.40;29.60
74364;DHT22;62797;49.740;10.154;2023-05-23T09:32:37;19.40;29.80
74364;DHT22;62797;49.740;10.154;2023-05-23T09:35:05;19.40;30.80
74364;DHT22;62797;49.740;10.154;2023-05-23T09:37:35;19.60;30.70
74364;DHT22;62797;49.740;10.154;2023-05-23T09:40:14;19.80;29.50
74364;DHT22;62797;49.740;10.154;2023-05-23T09:42:50;19.80;29.90
74364;DHT22;62797;49.740;10.154;2023-05-23T09:45:16;19.80;29.60
74364;DHT22;62797;49.740;10.154;2023-05-23T09:47:52;19.90;29.30
74364;DHT22;62797;49.740;10.154;2023-05-23T09:50:18;19.90;29.90
74364;DHT22;62797;49.740;10.154;2023-05-23T09:52:44;19.90;30.20
74364;DHT22;62797;49.740;10.154;2023-05-23T09:55:11;20.10;29.50
74364;DHT22;62797;49.740;10.154;2023-05-23T09:57:40;20.20;29.30
74364;DHT22;62797;49.740;10.154;2023-05-23T10:00:10;20.40;27.60
74364;DHT22;62797;49.740;10.154;2023-05-23T10:05:17;20.40;27.60
74364;DHT22;62797;49.740;10.154;2023-05-23T10:07:49;20.30;27.50
74364;DHT22;62797;49.740;10.154;2023-05-23T10:10:15;20.10;27.20
74364;DHT22;62797;49.740;10.154;2023-05-23T10:12:47;19.80;27.80
74364;DHT22;62797;49.740;10.154;2023-05-23T10:15:14;19.80;28.70
74364;DHT22;62797;49.740;10.154;2023-05-23T10:20:17;19.50;28.90
74364;DHT22;62797;49.740;10.154;2023-05-23T10:22:47;19.40;29.70
74364;DHT22;62797;49.740;10.154;2023-05-23T10:25:14;19.50;29.80
74364;DHT22;62797;49.740;10.154;2023-05-23T10:27:41;19.60;29.50
74364;DHT22;62797;49.740;10.154;2023-05-23T10:30:08;19.70;29.60
74364;DHT22;62797;49.740;10.154;2023-05-23T10:32:35;19.50;29.90
74364;DHT22;62797;49.740;10.154;2023-05-23T10:37:54;19.30;29.30
74364;DHT22;62797;49.740;10.154;2023-05-23T10:40:49;19.20;29.50
74364;DHT22;62797;49.740;10.154;2023-05-23T10:43:30;19.30;29.40
74364;DHT22;62797;49.740;10.154;2023-05-23T10:45:58;19.40;29.80
74364;DHT22;62797;49.740;10.154;2023-05-23T10:48:34;19.30;29.30
74364;DHT22;62797;49.740;10.154;2023-05-23T10:51:11;19.40;29.40
74364;DHT22;62797;49.740;10.154;2023-05-23T10:53:43;19.40;29.60
74364;DHT22;62797;49.740;10.154;2023-05-23T10:56:13;19.50;29.90
74364;DHT22;62797;49.740;10.154;2023-05-23T10:58:43;19.50;29.50
74364;DHT22;62797;49.740;10.154;2023-05-23T11:01:12;19.60;29.40
74364;DHT22;62797;49.740;10.154;2023-05-23T11:06:40;19.50;28.90
74364;DHT22;62797;49.740;10.154;2023-05-23T11:09:17;19.60;29.40
74364;DHT22;62797;49.740;10.154;2023-05-23T11:17:02;19.40;29.90
74364;DHT22;62797;49.740;10.154;2023-05-23T11:19:39;19.30;30.00
74364;DHT22;62797;49.740;10.154;2023-05-23T11:22:19;19.30;29.90
74364;DHT22;62797;49.740;10.154;2023-05-23T11:24:53;19.20;29.90
74364;DHT22;62797;49.740;10.154;2023-05-23T11:27:34;19.20;30.70
74364;DHT22;62797;49.740;10.154;2023-05-23T11:30:05;19.10;30.80
74364;DHT22;62797;49.740;10.154;2023-05-23T11:32:31;19.10;30.60
74364;DHT22;62797;49.740;10.154;2023-05-23T11:35:16;19.10;30.20
74364;DHT22;62797;49.740;10.154;2023-05-23T11:37:43;19.20;30.60
74364;DHT22;62797;49.740;10.154;2023-05-23T11:42:54;19.30;30.70
74364;DHT22;62797;49.740;10.154;2023-05-23T11:45:21;19.30;31.10
74364;DHT22;62797;49.740;10.154;2023-05-23T11:47:47;19.30;30.80
74364;DHT22;62797;49.740;10.154;2023-05-23T11:50:14;19.10;31.70
74364;DHT22;62797;49.740;10.154;2023-05-23T11:52:40;19.20;31.70
74364;DHT22;62797;49.740;10.154;2023-05-23T11:55:07;19.00;31.10
74364;DHT22;62797;49.740;10.154;2023-05-23T11:57:37;19.10;30.70
74364;DHT22;62797;49.740;10.154;2023-05-23T12:00:05;19.30;30.80
74364;DHT22;62797;49.740;10.154;2023-05-23T12:02:38;19.30;30.20
74364;DHT22;62797;49.740;10.154;2023-05-23T12:05:12;19.30;30.10
74364;DHT22;62797;49.740;10.154;2023-05-23T12:07:46;19.30;30.80
74364;DHT22;62797;49.740;10.154;2023-05-23T12:10:16;19.50;30.90
74364;DHT22;62797;49.740;10.154;2023-05-23T12:12:43;19.60;31.20
74364;DHT22;62797;49.740;10.154;2023-05-23T12:15:09;19.60;31.00
74364;DHT22;62797;49.740;10.154;2023-05-23T12:17:37;19.50;30.20
74364;DHT22;62797;49.740;10.154;2023-05-23T12:20:06;19.60;30.80
74364;DHT22;62797;49.740;10.154;2023-05-23T12:22:32;19.60;31.30
74364;DHT22;62797;49.740;10.154;2023-05-23T12:24:58;19.40;31.80
74364;DHT22;62797;49.740;10.154;2023-05-23T12:27:29;19.40;30.30
74364;DHT22;62797;49.740;10.154;2023-05-23T12:30:05;19.20;31.10
74364;DHT22;62797;49.740;10.154;2023-05-23T12:32:32;19.20;31.90
74364;DHT22;62797;49.740;10.154;2023-05-23T12:34:58;19.30;31.90
74364;DHT22;62797;49.740;10.154;2023-05-23T12:37:23;19.20;31.00
74364;DHT22;62797;49.740;10.154;2023-05-23T12:39:50;19.30;31.90
74364;DHT22;62797;49.740;10.154;2023-05-23T12:42:16;19.30;31.20
74364;DHT22;62797;49.740;10.154;2023-05-23T12:44:42;19.40;30.90
74364;DHT22;62797;49.740;10.154;2023-05-23T12:47:08;19.40;30.30
74364;DHT22;62797;49.740;10.154;2023-05-23T12:49:35;19.40;31.00
74364;DHT22;62797;49.740;10.154;2023-05-23T12:52:00;19.50;31.80
74364;DHT22;62797;49.740;10.154;2023-05-23T12:54:26;19.50;31.40
74364;DHT22;62797;49.740;10.154;2023-05-23T12:56:52;19.50;30.90
74364;DHT22;62797;49.740;10.154;2023-05-23T12:59:18;19.50;32.10
74364;DHT22;62797;49.740;10.154;2023-05-23T13:01:44;19.50;31.70
74364;DHT22;62797;49.740;10.154;2023-05-23T13:04:10;19.40;32.00
74364;DHT22;62797;49.740;10.154;2023-05-23T13:06:36;19.40;31.80
74364;DHT22;62797;49.740;10.154;2023-05-23T13:09:01;19.30;31.50
74364;DHT22;62797;49.740;10.154;2023-05-23T13:11:29;18.90;32.90
74364;DHT22;62797;49.740;10.154;2023-05-23T13:13:56;18.80;33.30
74364;DHT22;62797;49.740;10.154;2023-05-23T13:16:22;18.90;32.60
74364;DHT22;62797;49.740;10.154;2023-05-23T13:18:48;18.80;33.00
74364;DHT22;62797;49.740;10.154;2023-05-23T13:21:13;18.60;33.40
74364;DHT22;62797;49.740;10.154;2023-05-23T13:23:39;18.60;33.80
74364;DHT22;62797;49.740;10.154;2023-05-23T13:26:06;18.50;33.90
74364;DHT22;62797;49.740;10.154;2023-05-23T13:28:32;18.50;34.30
74364;DHT22;62797;49.740;10.154;2023-05-23T13:30:58;18.80;33.40
74364;DHT22;62797;49.740;10.154;2023-05-23T13:33:24;18.80;34.40
74364;DHT22;62797;49.740;10.154;2023-05-23T13:35:50;19.00;34.50
74364;DHT22;62797;49.740;10.154;2023-05-23T13:38:19;19.20;33.10
74364;DHT22;62797;49.740;10.154;2023-05-23T13:40:45;19.00;33.30
74364;DHT22;62797;49.740;10.154;2023-05-23T13:43:13;19.00;33.50
74364;DHT22;62797;49.740;10.154;2023-05-23T13:45:39;19.00;33.10
74364;DHT22;62797;49.740;10.154;2023-05-23T13:48:05;18.90;33.60
74364;DHT22;62797;49.740;10.154;2023-05-23T13:50:31;18.80;33.50
74364;DHT22;62797;49.740;10.154;2023-05-23T13:52:56;18.70;33.80
74364;DHT22;62797;49.740;10.154;2023-05-23T13:55:22;18.70;34.10
74364;DHT22;62797;49.740;10.154;2023-05-23T13:57:48;18.60;33.80
74364;DHT22;62797;49.740;10.154;2023-05-23T14:00:14;18.50;34.20
74364;DHT22;62797;49.740;10.154;2023-05-23T14:02:41;18.70;35.90
74364;DHT22;62797;49.740;10.154;2023-05-23T14:05:07;18.60;35.00
74364;DHT22;62797;49.740;10.154;2023-05-23T14:07:33;18.70;35.40
74364;DHT22;62797;49.740;10.154;2023-05-23T14:09:59;18.80;35.30
74364;DHT22;62797;49.740;10.154;2023-05-23T14:12:25;18.90;35.60
74364;DHT22;62797;49.740;10.154;2023-05-23T14:14:51;19.00;35.90
74364;DHT22;62797;49.740;10.154;2023-05-23T14:17:17;19.10;34.70
74364;DHT22;62797;49.740;10.154;2023-05-23T14:19:43;19.10;34.50
74364;DHT22;62797;49.740;10.154;2023-05-23T14:22:09;19.10;35.00
74364;DHT22;62797;49.740;10.154;2023-05-23T14:24:35;19.10;35.80
74364;DHT22;62797;49.740;10.154;2023-05-23T14:27:01;19.20;35.90
74364;DHT22;62797;49.740;10.154;2023-05-23T14:29:28;19.30;34.50
74364;DHT22;62797;49.740;10.154;2023-05-23T14:31:53;19.20;33.90
74364;DHT22;62797;49.740;10.154;2023-05-23T14:34:19;19.20;33.20
74364;DHT22;62797;49.740;10.154;2023-05-23T14:36:45;19.00;32.70
74364;DHT22;62797;49.740;10.154;2023-05-23T14:39:11;18.80;33.30
74364;DHT22;62797;49.740;10.154;2023-05-23T14:41:37;18.80;33.40
74364;DHT22;62797;49.740;10.154;2023-05-23T14:44:04;18.80;33.00
74364;DHT22;62797;49.740;10.154;2023-05-23T14:46:29;18.90;34.30
74364;DHT22;62797;49.740;10.154;2023-05-23T14:48:55;19.10;32.30
74364;DHT22;62797;49.740;10.154;2023-05-23T14:51:21;19.20;32.30
74364;DHT22;62797;49.740;10.154;2023-05-23T14:53:47;19.10;31.90
74364;DHT22;62797;49.740;10.154;2023-05-23T14:56:13;19.20;31.10
74364;DHT22;62797;49.740;10.154;2023-05-23T14:58:38;19.00;31.90
74364;DHT22;62797;49.740;10.154;2023-05-23T15:01:12;19.10;31.80
74364;DHT22;62797;49.740;10.154;2023-05-23T15:03:38;19.10;31.70
74364;DHT22;62797;49.740;10.154;2023-05-23T15:06:04;19.20;31.40
74364;DHT22;62797;49.740;10.154;2023-05-23T15:08:31;19.20;30.70
74364;DHT22;62797;49.740;10.154;2023-05-23T15:10:58;19.20;31.60
74364;DHT22;62797;49.740;10.154;2023-05-23T15:13:23;19.30;31.40
74364;DHT22;62797;49.740;10.154;2023-05-23T15:15:49;19.30;30.80
74364;DHT22;62797;49.740;10.154;2023-05-23T15:18:15;19.20;29.80
74364;DHT22;62797;49.740;10.154;2023-05-23T15:20:41;19.10;30.30
74364;DHT22;62797;49.740;10.154;2023-05-23T15:23:07;19.10;30.10
74364;DHT22;62797;49.740;10.154;2023-05-23T15:25:32;19.20;31.20
74364;DHT22;62797;49.740;10.154;2023-05-23T15:27:58;19.00;30.50
74364;DHT22;62797;49.740;10.154;2023-05-23T15:30:24;18.70;31.30
74364;DHT22;62797;49.740;10.154;2023-05-23T15:32:49;18.70;32.10
74364;DHT22;62797;49.740;10.154;2023-05-23T15:35:15;18.70;32.80
74364;DHT22;62797;49.740;10.154;2023-05-23T15:37:41;18.70;32.80
74364;DHT22;62797;49.740;10.154;2023-05-23T15:40:07;18.60;33.50
74364;DHT22;62797;49.740;10.154;2023-05-23T15:42:34;18.60;32.40
74364;DHT22;62797;49.740;10.154;2023-05-23T15:45:01;18.70;33.00